Time;durP1;ratioP1;P1;durP2;ratioP2;P2;SDS_P1;SDS_P2;PMS_P1;PMS_P2;Temp;Humidity;BMP_temperature;BMP_pressure;BME280_temperature;BME280_humidity;BME280_pressure;Samples;Min_cycle;Max_cycle;Signal;HPM_P1;HPM_P2
2022/11/06 00:00:17;;;;;;;14.68;8.88;;;;;;;2.31;100.00;97718.81;5064025;28;20079;-58
2022/11/06 00:02:44;;;;;;;13.85;7.97;;;;;;;2.40;100.00;97703.47;5064006;28;20054;-57
2022/11/06 00:08:04;;;;;;;16.90;9.68;;;;;;;2.23;100.00;97697.56;5050155;28;20481;-55
2022/11/06 00:10:31;;;;;;;12.82;8.77;;;;;;;2.17;100.00;97692.94;5063887;28;20075;-57
2022/11/06 00:12:58;;;;;;;15.32;8.23;;;;;;;2.08;100.00;97700.28;5065595;28;20131;-54
2022/11/06 00:15:24;;;;;;;14.30;8.75;;;;;;;1.97;100.00;97696.25;5066115;28;20411;-57
2022/11/06 00:17:51;;;;;;;12.98;8.13;;;;;;;1.90;100.00;97711.38;5066899;28;20072;-55
2022/11/06 00:20:17;;;;;;;15.07;8.43;;;;;;;1.85;100.00;97713.78;5066739;28;20044;-58
2022/11/06 00:22:44;;;;;;;16.08;9.57;;;;;;;1.47;100.00;97722.75;5050505;28;20332;-56
2022/11/06 00:25:11;;;;;;;18.83;10.30;;;;;;;1.48;100.00;97727.91;5049332;28;20103;-54
2022/11/06 00:27:39;;;;;;;15.88;9.88;;;;;;;1.50;100.00;97725.03;5065758;28;20543;-53
2022/11/06 00:30:07;;;;;;;23.52;10.85;;;;;;;1.67;100.00;97723.81;5066271;28;20045;-54
2022/11/06 00:32:34;;;;;;;20.90;11.02;;;;;;;1.74;100.00;97721.25;5066444;28;20049;-53
2022/11/06 00:35:00;;;;;;;17.80;11.13;;;;;;;1.77;100.00;97718.19;5086598;28;20575;-53
2022/11/06 00:37:27;;;;;;;18.05;9.80;;;;;;;1.76;100.00;97724.56;5068309;28;20109;-55
2022/11/06 00:39:53;;;;;;;19.60;10.95;;;;;;;1.71;100.00;97726.97;5066564;28;20040;-53
2022/11/06 00:42:20;;;;;;;20.33;11.60;;;;;;;1.68;100.00;97736.19;5060940;28;20507;-54
2022/11/06 00:44:46;;;;;;;17.05;10.45;;;;;;;1.66;100.00;97726.69;5065834;28;20037;-58
2022/11/06 00:47:13;;;;;;;18.70;10.52;;;;;;;1.63;100.00;97725.22;5066121;28;20043;-57
2022/11/06 00:49:39;;;;;;;16.33;10.52;;;;;;;1.61;100.00;97734.41;5063494;28;20206;-55
2022/11/06 00:52:06;;;;;;;17.80;10.98;;;;;;;1.54;100.00;97731.66;5064594;28;20071;-58
2022/11/06 00:54:32;;;;;;;18.17;10.07;;;;;;;1.59;100.00;97728.44;5066188;28;20048;-58
2022/11/06 00:56:59;;;;;;;18.10;10.55;;;;;;;1.54;100.00;97723.66;5065226;28;20128;-57
2022/11/06 00:59:25;;;;;;;19.48;11.70;;;;;;;1.41;100.00;97729.66;5066291;28;20068;-55
2022/11/06 01:01:51;;;;;;;19.52;11.07;;;;;;;1.32;100.00;97723.56;5065238;28;20120;-58
2022/11/06 01:04:21;;;;;;;16.75;9.95;;;;;;;1.24;100.00;97723.66;5065791;28;20067;-57
2022/11/06 01:06:51;;;;;;;24.42;9.88;;;;;;;1.31;100.00;97735.25;5065531;28;20068;-57
2022/11/06 01:09:21;;;;;;;15.55;9.23;;;;;;;1.50;100.00;97739.22;5066179;28;20426;-57
2022/11/06 01:11:50;;;;;;;17.52;9.35;;;;;;;1.46;100.00;97724.59;5061836;28;20242;-58
2022/11/06 01:14:38;;;;;;;18.13;10.10;;;;;;;1.34;100.00;97720.72;5046206;28;20136;-58
2022/11/06 01:17:05;;;;;;;16.10;9.60;;;;;;;1.40;100.00;97718.13;5062515;28;20072;-56
2022/11/06 01:19:32;;;;;;;15.30;9.25;;;;;;;1.52;100.00;97715.00;5063915;28;20112;-56
2022/11/06 01:21:58;;;;;;;15.73;9.63;;;;;;;1.44;100.00;97715.94;5065482;28;20043;-57
2022/11/06 01:24:26;;;;;;;17.63;11.13;;;;;;;1.49;100.00;97715.38;5065428;28;20072;-52
2022/11/06 01:26:54;;;;;;;16.02;9.75;;;;;;;1.61;100.00;97723.72;5065885;28;20449;-55
2022/11/06 01:29:40;;;;;;;16.80;10.43;;;;;;;1.49;100.00;97712.72;5064557;28;20431;-55
2022/11/06 01:32:07;;;;;;;20.80;10.88;;;;;;;1.33;100.00;97713.72;5064987;28;20115;-54
2022/11/06 01:34:34;;;;;;;18.08;10.15;;;;;;;1.21;100.00;97718.72;5065324;28;20108;-55
2022/11/06 01:37:00;;;;;;;17.42;10.15;;;;;;;1.15;100.00;97714.94;5064116;28;20036;-52
2022/11/06 01:39:27;;;;;;;17.95;10.98;;;;;;;1.17;100.00;97712.88;5066046;28;20128;-56
2022/11/06 01:41:53;;;;;;;20.63;11.18;;;;;;;1.23;100.00;97703.34;5060548;28;20116;-55
2022/11/06 01:45:07;;;;;;;16.30;10.50;;;;;;;1.40;100.00;97710.13;5045896;28;20115;-54
2022/11/06 01:47:33;;;;;;;17.75;9.43;;;;;;;1.62;100.00;97704.06;5059605;28;20072;-57
2022/11/06 01:50:05;;;;;;;13.02;8.77;;;;;;;1.75;100.00;97690.88;5066521;28;20123;-54
2022/11/06 01:52:33;;;;;;;13.95;8.63;;;;;;;1.88;100.00;97697.38;5064561;28;20471;-52
2022/11/06 01:55:14;;;;;;;17.35;8.98;;;;;;;1.94;100.00;97709.97;5065172;28;20040;-53
2022/11/06 01:57:41;;;;;;;16.58;8.23;;;;;;;1.89;100.00;97697.19;5065510;28;20135;-58
2022/11/06 02:00:08;;;;;;;17.80;7.68;;;;;;;1.76;100.00;97697.84;5064980;28;20080;-55
2022/11/06 02:02:36;;;;;;;15.00;9.02;;;;;;;1.70;100.00;97687.94;5065406;28;20167;-56
2022/11/06 02:05:03;;;;;;;13.40;8.00;;;;;;;1.72;100.00;97687.72;5064467;28;20044;-58
2022/11/06 02:07:31;;;;;;;12.68;7.88;;;;;;;1.80;100.00;97684.94;5065494;28;20510;-56
2022/11/06 02:09:58;;;;;;;14.75;8.93;;;;;;;1.78;100.00;97692.34;5069110;28;20075;-56
2022/11/06 02:12:45;;;;;;;13.73;7.43;;;;;;;1.84;100.00;97693.44;5057636;28;20116;-57
2022/11/06 02:15:31;;;;;;;14.43;8.63;;;;;;;1.81;100.00;97690.09;5050880;28;20508;-57
2022/11/06 02:18:36;;;;;;;13.48;7.82;;;;;;;1.72;100.00;97682.38;5068101;28;20231;-56
2022/11/06 02:21:24;;;;;;;11.90;7.25;;;;;;;1.62;100.00;97683.50;5048465;28;20076;-56
2022/11/06 02:24:29;;;;;;;12.23;7.43;;;;;;;1.66;100.00;97681.31;5049035;28;20115;-56
2022/11/06 02:27:09;;;;;;;16.52;8.18;;;;;;;1.65;100.00;97671.63;5044817;28;20079;-57
2022/11/06 02:30:00;;;;;;;14.45;8.65;;;;;;;1.58;100.00;97660.88;5066575;28;20051;-56
2022/11/06 02:32:47;;;;;;;13.10;7.50;;;;;;;1.58;100.00;97644.88;5068582;28;20048;-58
2022/11/06 02:35:27;;;;;;;12.05;8.20;;;;;;;1.58;100.00;97644.06;5068813;28;20044;-57
2022/11/06 02:37:59;;;;;;;11.93;7.75;;;;;;;1.56;100.00;97633.56;5068975;28;20060;-57
2022/11/06 02:40:31;;;;;;;14.77;7.65;;;;;;;1.51;100.00;97625.31;5068580;28;20411;-58
2022/11/06 02:43:05;;;;;;;14.80;8.23;;;;;;;1.45;100.00;97624.19;5055633;28;20073;-56
2022/11/06 02:45:39;;;;;;;13.68;7.13;;;;;;;1.46;100.00;97619.66;5048829;28;20041;-57
2022/11/06 02:48:09;;;;;;;14.50;8.82;;;;;;;1.49;100.00;97616.63;5068713;28;20036;-57
2022/11/06 02:50:44;;;;;;;14.75;8.70;;;;;;;1.23;100.00;97615.31;5069177;28;20072;-57
2022/11/06 02:53:15;;;;;;;13.13;7.97;;;;;;;1.03;100.00;97614.03;5068089;28;20499;-58
2022/11/06 02:55:48;;;;;;;15.00;8.67;;;;;;;0.91;100.00;97607.50;5059424;28;20463;-58
2022/11/06 02:58:23;;;;;;;12.43;7.85;;;;;;;0.84;100.00;97611.91;5055620;28;20417;-58
2022/11/06 03:00:56;;;;;;;15.48;8.40;;;;;;;0.80;100.00;97610.63;5048444;28;20405;-55
2022/11/06 03:03:26;;;;;;;14.93;7.95;;;;;;;0.77;100.00;97603.81;5065294;28;20047;-55
2022/11/06 03:06:11;;;;;;;17.42;8.73;;;;;;;0.79;100.00;97599.13;5067417;28;20787;-54
2022/11/06 03:08:53;;;;;;;20.73;8.43;;;;;;;0.78;100.00;97603.63;5067775;28;20039;-55
2022/11/06 03:11:27;;;;;;;13.15;7.85;;;;;;;0.78;100.00;97598.31;5066185;28;20508;-54
2022/11/06 03:13:57;;;;;;;18.30;9.07;;;;;;;0.75;100.00;97603.19;5048018;28;20149;-55
2022/11/06 03:16:51;;;;;;;16.08;8.25;;;;;;;0.73;100.00;97602.53;5059395;28;20048;-58
2022/11/06 03:19:47;;;;;;;14.38;8.32;;;;;;;0.80;100.00;97608.78;5063546;28;20040;-58
2022/11/06 03:22:27;;;;;;;17.17;7.68;;;;;;;0.77;100.00;97604.66;5064005;28;20099;-56
2022/11/06 03:25:17;;;;;;;14.15;7.53;;;;;;;0.73;100.00;97602.53;5068178;28;20127;-56
2022/11/06 03:28:06;;;;;;;11.85;7.07;;;;;;;0.78;100.00;97602.81;5066595;28;20511;-58
2022/11/06 03:30:37;;;;;;;14.20;8.63;;;;;;;0.79;100.00;97599.13;5066654;28;20100;-53
2022/11/06 03:33:14;;;;;;;14.43;7.97;;;;;;;0.80;100.00;97599.97;5065783;28;20068;-56
2022/11/06 03:35:50;;;;;;;13.75;7.10;;;;;;;0.82;100.00;97585.44;5067819;28;20131;-55
2022/11/06 03:38:27;;;;;;;14.50;8.25;;;;;;;0.81;100.00;97580.28;5067538;28;20064;-56
2022/11/06 03:41:01;;;;;;;16.60;8.30;;;;;;;0.81;100.00;97580.28;5067213;28;20135;-52
2022/11/06 03:43:35;;;;;;;17.83;9.43;;;;;;;0.88;100.00;97581.19;5065555;28;20110;-55
2022/11/06 03:46:08;;;;;;;14.63;8.98;;;;;;;0.85;100.00;97579.72;5066182;28;20072;-52
2022/11/06 03:48:46;;;;;;;15.77;8.63;;;;;;;0.86;100.00;97583.22;5067717;28;20068;-54
2022/11/06 03:51:27;;;;;;;17.67;9.30;;;;;;;0.91;100.00;97583.50;5067173;28;20072;-55
2022/11/06 03:54:02;;;;;;;16.48;9.45;;;;;;;0.95;100.00;97583.97;5067003;28;20120;-54
2022/11/06 03:56:42;;;;;;;17.52;9.30;;;;;;;0.94;100.00;97571.63;5066929;28;20571;-54
2022/11/06 03:59:11;;;;;;;14.27;8.90;;;;;;;0.98;100.00;97576.44;5067627;28;20079;-55
2022/11/06 04:01:43;;;;;;;16.70;9.45;;;;;;;0.97;100.00;97576.59;5066667;28;20048;-53
2022/11/06 04:04:26;;;;;;;21.35;10.75;;;;;;;1.06;100.00;97575.50;5065126;28;20396;-57
2022/11/06 04:06:56;;;;;;;17.40;9.45;;;;;;;0.97;100.00;97571.28;5066583;28;20697;-57
2022/11/06 04:15:05;;;;;;;14.35;8.32;;;;;;;0.90;100.00;97557.84;5064047;28;20041;-58
2022/11/06 04:17:32;;;;;;;12.90;7.68;;;;;;;0.91;100.00;97556.84;5066465;28;20033;-58
2022/11/06 04:20:03;;;;;;;18.15;8.88;;;;;;;0.95;100.00;97551.97;5067033;28;20044;-58
2022/11/06 04:22:44;;;;;;;14.93;7.72;;;;;;;0.89;100.00;97549.03;5066610;28;20054;-58
2022/11/06 04:28:39;;;;;;;12.48;7.18;;;;;;;0.98;100.00;97555.09;5066579;28;20036;-53
2022/11/06 04:31:09;;;;;;;13.48;7.35;;;;;;;0.89;100.00;97549.03;5065909;28;20087;-54
2022/11/06 04:34:15;;;;;;;11.93;6.85;;;;;;;0.91;100.00;97538.19;5066673;28;20047;-58
2022/11/06 04:36:52;;;;;;;12.32;7.38;;;;;;;0.73;100.00;97536.72;5066055;28;20128;-58
2022/11/06 04:39:36;;;;;;;12.63;7.75;;;;;;;0.52;100.00;97540.13;5066695;28;20127;-56
2022/11/06 04:42:21;;;;;;;12.65;7.55;;;;;;;0.62;100.00;97545.16;5060562;28;20500;-58
2022/11/06 04:44:57;;;;;;;17.00;8.40;;;;;;;0.62;100.00;97524.69;5066904;28;20047;-57
2022/11/06 04:47:24;;;;;;;16.92;8.57;;;;;;;0.76;100.00;97524.84;5065364;28;20158;-56
2022/11/06 04:49:55;;;;;;;15.65;8.57;;;;;;;0.79;100.00;97519.16;5066604;28;20122;-58
2022/11/06 04:52:27;;;;;;;17.27;8.65;;;;;;;0.94;100.00;97520.97;5066000;28;20508;-55
2022/11/06 04:54:56;;;;;;;19.33;9.50;;;;;;;0.97;100.00;97525.94;5081590;28;20055;-57
2022/11/06 04:57:23;;;;;;;16.10;8.60;;;;;;;1.12;100.00;97534.75;5065763;28;20047;-56
2022/11/06 04:59:50;;;;;;;14.02;8.70;;;;;;;1.28;100.00;97538.19;5065673;28;20072;-55
2022/11/06 05:02:16;;;;;;;14.55;8.40;;;;;;;1.46;100.00;97540.44;5065761;28;20102;-55
2022/11/06 05:04:44;;;;;;;16.50;7.50;;;;;;;1.48;100.00;97534.94;5066281;28;20115;-58
2022/11/06 05:07:12;;;;;;;15.50;8.68;;;;;;;1.51;100.00;97548.72;5065578;28;20043;-58
2022/11/06 05:09:39;;;;;;;12.93;7.72;;;;;;;1.46;100.00;97536.94;5066534;28;20040;-56
2022/11/06 05:12:06;;;;;;;13.80;8.40;;;;;;;1.31;100.00;97537.81;5058996;28;20043;-57
2022/11/06 05:14:33;;;;;;;12.80;7.57;;;;;;;1.28;100.00;97531.03;5062327;28;20044;-58
2022/11/06 05:16:59;;;;;;;14.02;8.43;;;;;;;1.24;100.00;97532.41;5065126;28;20423;-55
2022/11/06 05:19:26;;;;;;;12.13;6.35;;;;;;;1.26;100.00;97538.38;5066373;28;20052;-56
2022/11/06 05:24:38;;;;;;;9.82;6.22;;;;;;;1.55;100.00;97546.50;5066091;28;20044;-57
2022/11/06 05:27:04;;;;;;;10.82;6.10;;;;;;;1.56;100.00;97548.16;5065447;28;20135;-58
2022/11/06 05:29:30;;;;;;;8.68;5.47;;;;;;;1.59;100.00;97541.59;5064382;28;20119;-57
2022/11/06 05:31:57;;;;;;;10.20;6.00;;;;;;;1.49;100.00;97533.91;5065406;28;20074;-56
2022/11/06 05:34:23;;;;;;;11.02;5.22;;;;;;;1.43;100.00;97535.50;5065383;28;20075;-58
2022/11/06 05:36:50;;;;;;;10.02;5.88;;;;;;;1.41;100.00;97526.84;5065438;28;20072;-57
2022/11/06 05:39:16;;;;;;;10.82;5.53;;;;;;;1.37;100.00;97525.59;5065802;28;20063;-55
2022/11/06 05:41:43;;;;;;;10.35;5.82;;;;;;;1.37;100.00;97520.25;5062029;28;20080;-56
2022/11/06 05:44:09;;;;;;;13.55;6.10;;;;;;;1.38;100.00;97516.56;5066113;28;20142;-52
2022/11/06 05:46:36;;;;;;;9.77;5.93;;;;;;;1.31;100.00;97516.47;5072139;28;20053;-54
2022/11/06 05:49:18;;;;;;;;;;;;;;;1.25;100.00;97534.06;5073289;28;20048;-55
2022/11/06 05:51:45;;;;;;;11.85;6.05;;;;;;;1.23;100.00;97543.28;5071896;28;20216;-58
2022/11/06 05:54:12;;;;;;;8.60;5.60;;;;;;;1.23;100.00;97540.59;5072493;28;20049;-58
2022/11/06 05:56:39;;;;;;;9.80;5.55;;;;;;;1.28;100.00;97544.38;5071950;28;20076;-56
2022/11/06 05:59:05;;;;;;;9.07;5.40;;;;;;;1.25;100.00;97539.41;5071750;28;20072;-58
2022/11/06 06:01:32;;;;;;;10.75;5.57;;;;;;;1.17;100.00;97534.19;5071718;28;20051;-58
2022/11/06 06:03:59;;;;;;;11.23;5.43;;;;;;;1.09;100.00;97545.78;5067063;28;20142;-58
2022/11/06 06:06:25;;;;;;;8.98;5.25;;;;;;;0.91;100.00;97540.84;5062015;28;20124;-57
2022/11/06 06:08:52;;;;;;;11.02;6.03;;;;;;;0.93;100.00;97541.50;5063063;28;20511;-58
2022/11/06 06:11:19;;;;;;;9.68;5.57;;;;;;;0.90;100.00;97537.38;5069247;28;20069;-56
2022/11/06 06:13:46;;;;;;;9.18;5.28;;;;;;;1.04;100.00;97542.88;5059908;28;20045;-57
2022/11/06 06:16:13;;;;;;;9.18;5.40;;;;;;;1.13;100.00;97525.72;5062408;28;20040;-58
2022/11/06 06:18:39;;;;;;;8.88;4.85;;;;;;;1.10;100.00;97522.63;5066339;28;20047;-56
2022/11/06 06:21:06;;;;;;;8.57;4.90;;;;;;;1.10;100.00;97518.09;5068699;28;20044;-57
2022/11/06 06:23:32;;;;;;;10.23;4.93;;;;;;;1.08;100.00;97505.97;5060442;28;20143;-58
2022/11/06 06:25:59;;;;;;;7.30;4.22;;;;;;;0.99;100.00;97513.28;5069602;28;20139;-56
2022/11/06 06:28:25;;;;;;;10.50;4.95;;;;;;;0.92;100.00;97499.81;5068997;28;20072;-57
2022/11/06 06:30:52;;;;;;;8.00;4.75;;;;;;;0.84;100.00;97494.59;5070514;28;20044;-55
2022/11/06 06:33:28;;;;;;;8.50;4.97;;;;;;;0.74;100.00;97501.06;5065573;28;20164;-56
2022/11/06 06:35:54;;;;;;;8.45;4.88;;;;;;;0.54;100.00;97513.28;5062182;28;20064;-57
2022/11/06 06:38:21;;;;;;;7.57;4.70;;;;;;;0.56;100.00;97506.78;5068314;28;20119;-57
2022/11/06 06:40:48;;;;;;;8.13;5.10;;;;;;;0.73;100.00;97496.75;5068958;28;20076;-55
2022/11/06 06:43:14;;;;;;;10.63;5.72;;;;;;;0.79;100.00;97492.50;5064962;28;20058;-55
2022/11/06 06:45:41;;;;;;;10.38;5.72;;;;;;;0.80;100.00;97494.16;5068689;28;20066;-58
2022/11/06 06:48:08;;;;;;;8.82;5.00;;;;;;;0.87;100.00;97491.56;5069156;28;20064;-53
2022/11/06 06:50:34;;;;;;;9.02;5.22;;;;;;;0.89;100.00;97501.03;5056562;28;20064;-55
2022/11/06 06:53:01;;;;;;;10.15;5.70;;;;;;;0.90;100.00;97494.72;5069907;28;20130;-56
2022/11/06 06:55:28;;;;;;;10.88;5.68;;;;;;;0.89;100.00;97490.38;5063812;28;20055;-56
2022/11/06 06:57:56;;;;;;;8.52;4.88;;;;;;;0.89;100.00;97486.91;5065296;28;20044;-55
2022/11/06 07:00:23;;;;;;;9.38;5.55;;;;;;;0.98;100.00;97474.25;5066173;28;20563;-56
2022/11/06 07:02:51;;;;;;;9.93;5.85;;;;;;;1.00;100.00;97461.59;5065344;28;20522;-55
2022/11/06 07:05:18;;;;;;;9.63;4.95;;;;;;;0.93;100.00;97461.50;5065227;28;20616;-54
2022/11/06 07:07:45;;;;;;;9.70;5.43;;;;;;;0.82;100.00;97464.66;5059876;28;20127;-54
2022/11/06 07:10:11;;;;;;;7.00;4.43;;;;;;;0.76;100.00;97460.88;5064868;28;20123;-56
2022/11/06 07:12:38;;;;;;;10.20;4.78;;;;;;;0.69;100.00;97451.97;5056533;28;20076;-58
2022/11/06 07:15:05;;;;;;;9.20;5.43;;;;;;;0.73;100.00;97453.25;5065519;28;20045;-55
2022/11/06 07:17:32;;;;;;;10.82;5.72;;;;;;;0.55;100.00;97454.47;5068128;28;20041;-58
2022/11/06 07:19:58;;;;;;;10.55;5.85;;;;;;;0.48;100.00;97445.59;5068479;28;20124;-58
2022/11/06 07:22:26;;;;;;;9.43;5.40;;;;;;;0.41;100.00;97450.00;5067850;28;20068;-57
2022/11/06 07:25:03;;;;;;;13.20;8.25;;;;;;;0.57;100.00;97444.47;5073256;28;20036;-57
2022/11/06 07:27:29;;;;;;;11.35;5.57;;;;;;;0.38;100.00;97438.69;5063736;28;20106;-58
2022/11/06 07:29:56;;;;;;;11.57;5.88;;;;;;;0.64;100.00;97434.75;5070291;28;20060;-58
2022/11/06 07:32:22;;;;;;;15.48;8.25;;;;;;;0.89;100.00;97429.03;5072803;28;20044;-55
2022/11/06 07:34:49;;;;;;;10.90;7.30;;;;;;;1.02;100.00;97420.38;5066012;28;20080;-54
2022/11/06 07:37:15;;;;;;;14.80;8.60;;;;;;;1.04;100.00;97426.34;5078468;28;20101;-56
2022/11/06 07:39:42;;;;;;;16.38;10.50;;;;;;;1.26;100.00;97412.19;5065878;28;20040;-56
2022/11/06 07:42:08;;;;;;;11.13;7.50;;;;;;;1.34;100.00;97414.72;5061701;28;20044;-57
2022/11/06 07:44:36;;;;;;;11.90;6.40;;;;;;;1.08;100.00;97407.28;5072756;28;20226;-58
2022/11/06 07:47:02;;;;;;;12.70;7.13;;;;;;;1.00;100.00;97397.59;5064939;28;20469;-56
2022/11/06 07:49:28;;;;;;;12.25;7.00;;;;;;;1.24;100.00;97392.88;5066368;28;20044;-57
2022/11/06 07:51:55;;;;;;;10.80;6.78;;;;;;;1.21;100.00;97388.75;5064308;28;20167;-56
2022/11/06 07:54:22;;;;;;;13.43;6.93;;;;;;;1.28;100.00;97384.31;5061665;28;20114;-57
2022/11/06 07:56:48;;;;;;;13.02;8.70;;;;;;;1.21;100.00;97387.94;5066559;28;20616;-54
2022/11/06 07:59:15;;;;;;;12.82;8.50;;;;;;;1.35;100.00;97386.19;5065210;28;20048;-58
2022/11/06 08:01:41;;;;;;;11.75;7.97;;;;;;;1.46;100.00;97384.84;5064986;28;20044;-56
2022/11/06 08:04:08;;;;;;;10.73;7.40;;;;;;;1.52;100.00;97374.22;5065264;28;20177;-54
2022/11/06 08:06:35;;;;;;;11.32;7.43;;;;;;;1.63;100.00;97375.56;5063142;28;20520;-58
2022/11/06 08:09:06;;;;;;;11.05;6.85;;;;;;;1.83;100.00;97369.50;5062984;28;20115;-56
2022/11/06 08:11:33;;;;;;;12.32;6.18;;;;;;;2.02;100.00;97361.81;5061928;28;20590;-55
2022/11/06 08:14:00;;;;;;;9.68;5.57;;;;;;;2.31;100.00;97368.75;5056528;28;20125;-54
2022/11/06 08:16:27;;;;;;;9.63;5.25;;;;;;;2.60;100.00;97369.47;5064377;28;20143;-53
2022/11/06 08:18:54;;;;;;;8.73;5.68;;;;;;;2.85;100.00;97381.47;5065071;28;20068;-53
2022/11/06 08:21:20;;;;;;;9.73;4.68;;;;;;;3.01;100.00;97374.09;5064649;28;20124;-56
2022/11/06 08:23:47;;;;;;;8.98;5.47;;;;;;;3.09;100.00;97377.41;5064310;28;20080;-56
2022/11/06 08:26:13;;;;;;;11.00;4.93;;;;;;;3.10;100.00;97378.25;5063607;28;20420;-53
2022/11/06 08:28:40;;;;;;;8.82;4.85;;;;;;;3.12;100.00;97379.69;5064410;28;20137;-55
2022/11/06 08:31:08;;;;;;;7.88;4.45;;;;;;;3.25;100.00;97375.38;5062811;28;20048;-57
2022/11/06 08:33:36;;;;;;;8.55;4.78;;;;;;;3.36;100.00;97373.94;5058062;28;20123;-58
2022/11/06 08:36:05;;;;;;;8.05;4.43;;;;;;;3.42;100.00;97373.09;5064807;28;20132;-58
2022/11/06 08:38:31;;;;;;;9.38;5.60;;;;;;;3.54;100.00;97361.78;5072415;28;20094;-58
2022/11/06 08:41:06;;;;;;;8.20;4.75;;;;;;;3.64;100.00;97365.69;5063196;28;20049;-58
2022/11/06 08:43:33;;;;;;;8.43;5.00;;;;;;;3.72;100.00;97359.28;5057107;28;20449;-57
2022/11/06 08:45:59;;;;;;;7.72;4.43;;;;;;;3.80;100.00;97355.59;5067880;28;20515;-58
2022/11/06 08:48:26;;;;;;;8.65;5.53;;;;;;;3.90;100.00;97357.81;5082957;28;20565;-58
2022/11/06 08:50:52;;;;;;;8.35;4.97;;;;;;;4.07;100.00;97354.69;5062859;28;20045;-56
2022/11/06 08:53:19;;;;;;;8.38;5.05;;;;;;;4.16;100.00;97351.56;5064038;28;20044;-58
2022/11/06 08:55:45;;;;;;;8.40;5.05;;;;;;;4.26;100.00;97350.31;5063588;28;20101;-56
2022/11/06 08:58:13;;;;;;;8.60;4.97;;;;;;;4.38;100.00;97358.50;5063801;28;20136;-56
2022/11/06 09:00:39;;;;;;;9.55;5.47;;;;;;;4.53;100.00;97360.91;5057898;28;20543;-56
2022/11/06 09:03:10;;;;;;;8.13;4.50;;;;;;;4.71;100.00;97357.53;5053323;28;20175;-56
2022/11/06 09:05:41;;;;;;;8.77;4.65;;;;;;;4.83;100.00;97376.44;5062796;28;20098;-55
2022/11/06 09:08:09;;;;;;;8.13;4.20;;;;;;;4.95;100.00;97403.44;5062934;28;20369;-57
2022/11/06 09:10:37;;;;;;;9.73;5.05;;;;;;;5.02;100.00;97425.66;5063505;28;20283;-58
2022/11/06 09:13:04;;;;;;;10.40;5.65;;;;;;;5.19;100.00;97426.00;5076629;28;20126;-56
2022/11/06 09:15:31;;;;;;;8.18;4.88;;;;;;;5.19;100.00;97419.81;5063719;28;20049;-55
2022/11/06 09:17:57;;;;;;;20.98;12.07;;;;;;;5.28;100.00;97420.38;5063109;28;20055;-57
2022/11/06 09:20:25;;;;;;;8.30;4.70;;;;;;;5.30;99.21;97408.38;5061976;28;20048;-56
2022/11/06 09:22:52;;;;;;;9.07;4.80;;;;;;;5.28;98.06;97397.06;5063428;28;20048;-58
2022/11/06 09:25:19;;;;;;;8.95;5.53;;;;;;;5.34;100.00;97393.47;5062512;28;20466;-57
2022/11/06 09:27:48;;;;;;;8.63;4.43;;;;;;;5.32;99.18;97397.44;5063644;28;20048;-56
2022/11/06 09:30:23;;;;;;;13.15;8.85;;;;;;;5.44;100.00;97384.13;5070557;28;20114;-56
2022/11/06 09:32:52;;;;;;;9.85;4.80;;;;;;;5.51;99.48;97373.31;5065414;28;20083;-57
2022/11/06 09:35:20;;;;;;;11.32;8.02;;;;;;;5.58;99.18;97361.50;5063045;28;20120;-58
2022/11/06 09:37:47;;;;;;;7.53;4.93;;;;;;;5.59;97.07;97354.25;5063327;28;20044;-56
2022/11/06 09:40:30;;;;;;;8.65;5.32;;;;;;;5.55;97.78;97347.66;5062828;28;20123;-55
2022/11/06 09:43:05;;;;;;;8.73;6.30;;;;;;;5.62;97.90;97344.91;5052734;28;20037;-56
2022/11/06 09:45:36;;;;;;;7.18;4.32;;;;;;;5.70;97.91;97328.53;5063341;28;20605;-55
2022/11/06 09:48:19;;;;;;;5.80;3.42;;;;;;;5.78;97.47;97327.44;5056171;28;20123;-56
2022/11/06 09:50:55;;;;;;;9.65;4.63;;;;;;;5.89;97.71;97315.13;5058691;28;20078;-56
2022/11/06 09:53:47;;;;;;;8.35;4.72;;;;;;;6.07;97.89;97320.53;5055501;28;20040;-56
2022/11/06 09:56:15;;;;;;;;;;;;;;;6.13;95.34;97315.28;5052143;28;20302;-58
2022/11/06 09:58:43;;;;;;;9.15;5.05;;;;;;;6.26;96.48;97317.81;5059778;28;20005;-57
2022/11/06 10:01:20;;;;;;;8.45;5.20;;;;;;;6.32;94.78;97316.09;5054741;28;20137;-57
2022/11/06 10:03:56;;;;;;;10.63;5.70;;;;;;;6.38;94.83;97317.91;5054100;28;20037;-58
2022/11/06 10:06:24;;;;;;;6.88;4.32;;;;;;;6.42;93.49;97323.66;5056377;28;20071;-57
2022/11/06 10:08:55;;;;;;;6.28;3.60;;;;;;;6.46;93.78;97314.91;5063262;28;20041;-56
2022/11/06 10:11:34;;;;;;;6.03;3.83;;;;;;;6.59;94.66;97305.00;5062299;28;20072;-57
2022/11/06 10:14:27;;;;;;;11.18;6.28;;;;;;;6.44;92.72;97297.34;5061952;28;20672;-56
2022/11/06 10:17:18;;;;;;;8.30;4.88;;;;;;;6.55;92.64;97280.44;5050037;28;20139;-57
2022/11/06 10:19:54;;;;;;;6.03;3.45;;;;;;;6.63;93.31;97277.41;5063413;28;20712;-55
2022/11/06 10:22:47;;;;;;;7.63;4.85;;;;;;;6.82;92.88;97266.59;5049809;28;20068;-56
2022/11/06 10:25:23;;;;;;;7.85;5.53;;;;;;;6.96;90.74;97261.81;5062622;28;20491;-57
2022/11/06 10:28:01;;;;;;;5.47;3.72;;;;;;;7.13;91.92;97258.47;5063416;28;20049;-57
2022/11/06 10:31:00;;;;;;;7.15;4.88;;;;;;;7.25;90.53;97251.22;5056461;28;20044;-58
2022/11/06 10:33:54;;;;;;;5.90;3.65;;;;;;;7.30;89.25;97242.44;5056020;28;20105;-56
2022/11/06 10:36:47;;;;;;;7.25;3.58;;;;;;;7.53;89.64;97230.00;5069553;28;20048;-56
2022/11/06 10:39:22;;;;;;;7.70;3.40;;;;;;;7.53;89.75;97227.31;5063174;28;20087;-56
2022/11/06 10:42:03;;;;;;;5.88;3.65;;;;;;;7.57;89.22;97220.41;5063011;28;20124;-56
2022/11/06 10:44:41;;;;;;;5.47;3.10;;;;;;;7.47;89.00;97212.09;5067027;28;20087;-53
2022/11/06 10:47:17;;;;;;;5.78;3.10;;;;;;;7.36;88.32;97209.16;5065686;28;20082;-56
2022/11/06 10:49:48;;;;;;;5.40;3.38;;;;;;;7.43;87.56;97206.34;5067368;28;20101;-55
2022/11/06 10:52:36;;;;;;;5.60;2.80;;;;;;;7.52;87.53;97199.53;5065875;28;20095;-54
2022/11/06 10:55:33;;;;;;;6.72;3.95;;;;;;;7.59;88.15;97185.13;5066478;28;20503;-55
2022/11/06 10:58:22;;;;;;;6.70;3.92;;;;;;;7.52;89.00;97177.19;5053553;28;20083;-55
2022/11/06 11:00:52;;;;;;;5.40;3.30;;;;;;;7.50;88.34;97180.13;5065699;28;20052;-56
2022/11/06 11:03:24;;;;;;;5.25;2.97;;;;;;;7.30;88.05;97164.34;5066298;28;20045;-51
2022/11/06 11:05:51;;;;;;;4.82;2.67;;;;;;;7.45;88.72;97154.94;5065831;28;20478;-52
2022/11/06 11:08:38;;;;;;;5.63;3.28;;;;;;;7.40;86.43;97161.84;5066073;28;20067;-52
2022/11/06 11:11:16;;;;;;;5.35;3.25;;;;;;;7.57;87.80;97150.34;5058087;28;20072;-54
2022/11/06 11:13:50;;;;;;;4.47;2.53;;;;;;;7.71;88.02;97155.47;5061758;28;20594;-57
2022/11/06 11:16:21;;;;;;;5.40;2.95;;;;;;;7.85;86.26;97143.34;5055134;28;20073;-57
2022/11/06 11:18:49;;;;;;;4.60;2.83;;;;;;;7.96;84.94;97133.56;5064948;28;20127;-54
2022/11/06 11:21:22;;;;;;;4.70;2.72;;;;;;;8.02;85.03;97131.78;5065382;28;20699;-54
2022/11/06 11:24:10;;;;;;;5.43;2.72;;;;;;;7.98;84.12;97120.69;5071689;28;20494;-56
2022/11/06 11:26:41;;;;;;;5.07;2.85;;;;;;;7.97;83.44;97124.44;5069418;28;20098;-57
2022/11/06 11:29:14;;;;;;;;;;;;;;;7.80;84.26;97130.59;5066515;28;20037;-60
2022/11/06 11:31:46;;;;;;;5.60;3.10;;;;;;;7.89;83.24;97114.03;5063279;28;20019;-58
2022/11/06 11:34:20;;;;;;;5.70;3.10;;;;;;;7.95;84.08;97115.75;5065390;28;20071;-59
2022/11/06 11:36:50;;;;;;;5.88;2.45;;;;;;;8.10;83.70;97115.22;5065447;28;20087;-60
2022/11/06 11:39:20;;;;;;;5.15;3.00;;;;;;;8.09;83.88;97105.50;5065563;28;20055;-60
2022/11/06 11:41:46;;;;;;;5.85;3.40;;;;;;;8.22;83.16;97087.38;5061614;28;20371;-59
2022/11/06 11:44:16;;;;;;;5.80;2.97;;;;;;;8.31;82.61;97094.84;5059113;28;20072;-59
2022/11/06 11:46:52;;;;;;;4.85;2.47;;;;;;;8.42;82.90;97087.72;5065539;28;20135;-54
2022/11/06 11:49:31;;;;;;;4.72;2.60;;;;;;;8.48;82.28;97079.72;5067128;28;20114;-57
2022/11/06 11:52:00;;;;;;;4.22;2.33;;;;;;;8.63;82.32;97073.75;5066233;28;20135;-58
2022/11/06 11:54:30;;;;;;;3.70;2.08;;;;;;;8.73;82.47;97076.59;5065247;28;20049;-58
2022/11/06 11:57:01;;;;;;;3.88;1.77;;;;;;;8.88;79.95;97076.00;5061887;28;20045;-56
2022/11/06 11:59:44;;;;;;;3.55;1.80;;;;;;;8.97;77.62;97073.72;5064539;28;20036;-56
2022/11/06 12:02:28;;;;;;;3.45;1.80;;;;;;;9.06;75.44;97071.38;5059717;28;20059;-57
2022/11/06 12:04:59;;;;;;;3.67;1.92;;;;;;;8.96;76.26;97055.88;5055572;28;20044;-56